createdAt,value
2019-04-29T00:02:36.191Z,3.70
2019-04-29T00:05:07.623Z,3.60
2019-04-29T00:07:38.098Z,3.40
2019-04-29T00:10:11.880Z,3.40
2019-04-29T00:12:42.266Z,3.40
2019-04-29T00:15:25.371Z,3.40
2019-04-29T00:18:09.220Z,3.50
2019-04-29T00:20:46.544Z,3.50
2019-04-29T00:23:16.830Z,3.50
2019-04-29T00:25:47.127Z,3.40
2019-04-29T00:28:17.621Z,3.40
2019-04-29T00:30:47.866Z,3.30
2019-04-29T00:33:18.442Z,3.30
2019-04-29T00:35:49.307Z,3.30
2019-04-29T00:38:37.616Z,3.30
2019-04-29T00:41:21.451Z,3.30
2019-04-29T00:43:56.082Z,3.30
2019-04-29T00:46:26.714Z,3.30
2019-04-29T00:48:57.001Z,3.20
2019-04-29T00:51:30.520Z,3.10
2019-04-29T00:54:16.622Z,3.10
2019-04-29T00:56:46.871Z,3.10
2019-04-29T00:59:17.321Z,3.10
2019-04-29T01:01:48.046Z,3.10
2019-04-29T01:04:18.875Z,3.10
2019-04-29T01:06:51.091Z,3.10
2019-04-29T01:09:21.636Z,3.00
2019-04-29T01:11:52.069Z,3.00
2019-04-29T01:14:22.936Z,2.90
2019-04-29T01:16:53.265Z,3.00
2019-04-29T01:19:23.860Z,3.00
2019-04-29T01:21:54.345Z,3.00
2019-04-29T01:24:24.431Z,3.00
2019-04-29T01:27:07.221Z,3.00
2019-04-29T01:29:37.555Z,3.00
2019-04-29T01:32:08.354Z,3.00
2019-04-29T01:34:45.571Z,3.00
2019-04-29T01:37:18.160Z,2.90
2019-04-29T01:39:54.711Z,2.80
2019-04-29T01:42:32.979Z,2.90
2019-04-29T01:45:03.434Z,2.90
2019-04-29T01:47:33.821Z,2.80
2019-04-29T01:50:04.070Z,2.80
2019-04-29T01:52:34.709Z,2.90
2019-04-29T01:55:05.649Z,2.80
2019-04-29T01:57:36.172Z,2.70
2019-04-29T02:00:08.489Z,2.60
2019-04-29T02:02:38.670Z,2.60
2019-04-29T02:05:10.016Z,2.60
2019-04-29T02:07:40.785Z,2.60
2019-04-29T02:10:21.018Z,2.60
2019-04-29T02:12:51.235Z,2.60
2019-04-29T02:15:21.925Z,2.60
2019-04-29T02:17:52.263Z,2.60
2019-04-29T02:20:22.379Z,2.50
2019-04-29T02:23:22.734Z,2.40
2019-04-29T02:25:53.139Z,2.40
2019-04-29T02:28:23.871Z,2.40
2019-04-29T02:30:54.792Z,2.40
2019-04-29T02:33:25.426Z,2.40
2019-04-29T02:35:55.698Z,2.40
2019-04-29T02:38:44.350Z,2.40
2019-04-29T02:41:33.517Z,2.30
2019-04-29T02:44:06.913Z,2.30
2019-04-29T02:46:37.837Z,2.30
2019-04-29T02:49:08.581Z,2.30
2019-04-29T02:51:53.715Z,2.30
2019-04-29T02:54:25.100Z,2.30
2019-04-29T02:57:14.980Z,2.20
2019-04-29T02:59:48.630Z,2.20
2019-04-29T03:02:29.892Z,2.20
2019-04-29T03:05:11.404Z,2.20
2019-04-29T03:07:41.865Z,2.10
2019-04-29T03:10:15.685Z,2.20
2019-04-29T03:12:46.143Z,2.10
2019-04-29T03:15:25.241Z,2.10
2019-04-29T03:17:55.705Z,2.10
2019-04-29T03:21:02.877Z,2.10
2019-04-29T03:23:33.536Z,2.20
2019-04-29T03:26:03.929Z,2.20
2019-04-29T03:28:34.512Z,2.10
2019-04-29T03:31:04.837Z,2.20
2019-04-29T03:33:35.325Z,2.20
2019-04-29T03:36:06.056Z,2.10
2019-04-29T03:38:37.065Z,2.10
2019-04-29T03:41:07.285Z,2.10
2019-04-29T03:43:37.455Z,2.10
2019-04-29T03:46:08.375Z,2.10
2019-04-29T03:48:38.906Z,2.10
2019-04-29T03:51:09.091Z,2.10
2019-04-29T03:53:39.377Z,2.10
2019-04-29T03:56:09.553Z,2.10
2019-04-29T03:58:39.789Z,2.20
2019-04-29T04:01:19.298Z,2.10
2019-04-29T04:03:54.560Z,2.20
2019-04-29T04:06:42.748Z,2.10
2019-04-29T04:09:20.116Z,2.10
2019-04-29T04:11:50.710Z,2.20
2019-04-29T04:14:21.926Z,2.10
2019-04-29T04:17:05.360Z,2.10
2019-04-29T04:19:35.684Z,2.10
2019-04-29T04:22:05.932Z,2.10
2019-04-29T04:24:39.524Z,2.00
2019-04-29T04:27:09.845Z,2.10
2019-04-29T04:29:40.626Z,2.10
2019-04-29T04:32:11.177Z,2.10
2019-04-29T04:34:41.459Z,2.10
2019-04-29T04:37:12.498Z,2.00
2019-04-29T04:39:43.987Z,2.00
2019-04-29T04:42:14.467Z,2.00
2019-04-29T04:44:51.580Z,2.00
2019-04-29T04:47:22.309Z,2.00
2019-04-29T04:49:52.569Z,2.00
2019-04-29T04:52:27.371Z,2.10
2019-04-29T04:54:57.632Z,2.10
2019-04-29T04:57:28.999Z,2.30
2019-04-29T04:59:59.273Z,2.30
2019-04-29T05:02:29.890Z,2.40
2019-04-29T05:05:00.109Z,2.50
2019-04-29T05:07:30.332Z,2.60
2019-04-29T05:10:00.919Z,2.60
2019-04-29T05:12:31.705Z,2.60
2019-04-29T05:15:01.880Z,2.50
2019-04-29T05:17:32.013Z,2.50
2019-04-29T05:20:02.250Z,2.50
2019-04-29T05:22:33.408Z,2.50
2019-04-29T05:25:04.676Z,2.60
2019-04-29T05:27:35.978Z,2.80
2019-04-29T05:30:07.070Z,2.90
2019-04-29T05:32:37.835Z,2.90
2019-04-29T05:35:11.590Z,2.90
2019-04-29T05:38:00.922Z,2.90
2019-04-29T05:40:40.223Z,2.90
2019-04-29T05:43:12.607Z,2.80
2019-04-29T05:46:07.938Z,2.90
2019-04-29T05:48:39.106Z,3.10
2019-04-29T05:54:17.577Z,3.40
2019-04-29T05:56:48.301Z,3.50
2019-04-29T05:59:19.049Z,3.60
2019-04-29T06:01:49.608Z,3.60
2019-04-29T06:04:21.383Z,3.70
2019-04-29T06:06:51.735Z,3.80
2019-04-29T06:09:22.549Z,4.00
2019-04-29T06:11:53.347Z,4.20
2019-04-29T06:14:23.696Z,4.30
2019-04-29T06:16:57.473Z,4.30
2019-04-29T06:19:26.114Z,4.40
2019-04-29T06:22:03.804Z,4.40
2019-04-29T06:24:36.845Z,4.50
2019-04-29T06:27:09.066Z,4.50
2019-04-29T06:29:39.229Z,4.70
2019-04-29T06:32:12.268Z,4.70
2019-04-29T06:34:42.621Z,4.90
2019-04-29T06:37:12.974Z,5.00
2019-04-29T06:39:44.517Z,5.20
2019-04-29T06:42:19.571Z,5.30
2019-04-29T06:44:53.537Z,5.50
2019-04-29T06:47:24.446Z,5.70
2019-04-29T06:49:59.333Z,5.80
2019-04-29T06:52:29.600Z,5.90
2019-04-29T06:54:59.859Z,6.00
2019-04-29T06:57:30.755Z,6.10
2019-04-29T07:00:01.032Z,6.20
2019-04-29T07:02:31.245Z,6.20
2019-04-29T07:05:04.255Z,6.30
2019-04-29T07:07:36.941Z,6.40
2019-04-29T07:10:08.829Z,6.60
2019-04-29T07:12:47.452Z,6.80
2019-04-29T07:15:25.139Z,6.90
2019-04-29T07:17:52.710Z,7.00
2019-04-29T07:20:26.453Z,7.20
2019-04-29T07:23:00.624Z,7.30
2019-04-29T07:25:34.489Z,7.40
2019-04-29T07:28:06.433Z,7.50
2019-04-29T07:30:59.973Z,7.70
2019-04-29T07:33:21.993Z,7.80
2019-04-29T07:35:49.662Z,7.90
2019-04-29T07:38:23.433Z,8.00
2019-04-29T07:40:57.517Z,8.30
2019-04-29T07:43:38.551Z,8.40
2019-04-29T07:46:56.329Z,8.60
2019-04-29T07:49:18.849Z,8.80
2019-04-29T07:51:53.096Z,9.00
2019-04-29T07:54:27.766Z,9.10
2019-04-29T07:56:57.945Z,9.30
2019-04-29T07:59:29.242Z,9.40
2019-04-29T08:02:01.386Z,9.50
2019-04-29T08:04:32.506Z,9.60
2019-04-29T08:07:02.816Z,9.70
2019-04-29T08:09:34.342Z,9.90
2019-04-29T08:12:05.151Z,9.90
2019-04-29T08:14:35.539Z,10.00
2019-04-29T08:17:06.114Z,10.20
2019-04-29T08:19:36.671Z,10.40
2019-04-29T08:22:07.029Z,10.50
2019-04-29T08:24:40.476Z,10.50
2019-04-29T08:27:10.633Z,10.70
2019-04-29T08:29:41.308Z,10.90
2019-04-29T08:32:14.865Z,11.00
2019-04-29T08:34:48.470Z,11.20
2019-04-29T08:37:19.330Z,11.30
2019-04-29T08:40:08.240Z,11.30
2019-04-29T08:42:25.779Z,11.50
2019-04-29T08:45:21.508Z,11.70
2019-04-29T08:47:53.424Z,12.00
2019-04-29T08:50:23.768Z,12.10
2019-04-29T08:52:55.346Z,12.20
2019-04-29T08:55:26.665Z,12.20
2019-04-29T08:57:57.563Z,12.20
2019-04-29T09:00:31.031Z,12.20
2019-04-29T09:03:01.258Z,12.10
2019-04-29T09:05:32.119Z,12.10
2019-04-29T09:08:02.300Z,12.10
2019-04-29T09:10:33.105Z,12.30
2019-04-29T09:13:04.694Z,12.50
2019-04-29T09:15:35.321Z,12.60
2019-04-29T09:18:05.630Z,12.70
2019-04-29T09:20:36.436Z,12.80
2019-04-29T09:23:09.797Z,12.80
2019-04-29T09:26:03.309Z,12.90
2019-04-29T09:28:33.929Z,12.90
2019-04-29T09:31:06.547Z,12.90
2019-04-29T09:33:37.369Z,12.90
2019-04-29T09:36:09.612Z,12.90
2019-04-29T09:38:41.100Z,12.90
2019-04-29T09:41:39.280Z,13.00
2019-04-29T09:44:44.753Z,13.00
2019-04-29T09:47:18.450Z,13.10
2019-04-29T09:49:49.289Z,13.30
2019-04-29T09:52:19.970Z,13.50
2019-04-29T09:54:51.586Z,13.50
2019-04-29T09:57:25.693Z,13.60
2019-04-29T10:00:05.354Z,13.70
2019-04-29T10:02:44.478Z,13.80
2019-04-29T10:05:33.209Z,13.80
2019-04-29T10:08:04.395Z,13.80
2019-04-29T10:10:39.044Z,13.80
2019-04-29T10:13:09.700Z,13.80
2019-04-29T10:16:02.866Z,13.80
2019-04-29T10:18:54.107Z,13.80
2019-04-29T10:21:25.275Z,13.80
2019-04-29T10:23:55.968Z,13.90
2019-04-29T10:26:27.290Z,13.90
2019-04-29T10:29:05.119Z,14.00
2019-04-29T10:31:35.946Z,14.10
2019-04-29T10:34:11.185Z,14.10
2019-04-29T10:36:52.216Z,14.20
2019-04-29T10:39:47.838Z,14.40
2019-04-29T10:42:33.362Z,14.50
2019-04-29T10:45:14.740Z,14.70
2019-04-29T10:48:20.396Z,14.70
2019-04-29T10:50:52.214Z,14.80
2019-04-29T10:53:28.975Z,14.80
2019-04-29T10:56:07.177Z,14.80
2019-04-29T10:58:38.721Z,14.60
2019-04-29T11:02:09.414Z,14.70
2019-04-29T11:04:39.638Z,14.70
2019-04-29T11:07:49.925Z,14.80
2019-04-29T11:10:29.189Z,14.90
2019-04-29T11:13:00.286Z,15.00
2019-04-29T11:15:44.973Z,15.20
2019-04-29T11:18:18.155Z,15.40
2019-04-29T11:20:57.280Z,15.50
2019-04-29T11:23:43.767Z,15.60
2019-04-29T11:26:38.269Z,15.60
2019-04-29T11:29:17.563Z,15.70
2019-04-29T11:31:54.165Z,15.70
2019-04-29T11:34:35.596Z,15.90
2019-04-29T11:37:13.729Z,15.90
2019-04-29T11:39:50.231Z,16.00
2019-04-29T11:42:26.848Z,16.10
2019-04-29T11:45:05.953Z,16.30
2019-04-29T11:47:38.286Z,16.40
2019-04-29T11:50:26.838Z,16.40
2019-04-29T11:53:09.574Z,16.30
2019-04-29T11:55:45.988Z,16.30
2019-04-29T11:58:37.457Z,16.30
2019-04-29T12:01:39.218Z,16.10
2019-04-29T12:04:42.459Z,16.10
2019-04-29T12:07:13.631Z,16.10
2019-04-29T12:09:50.866Z,15.90
2019-04-29T12:12:27.040Z,15.80
2019-04-29T12:15:25.287Z,15.70
2019-04-29T12:18:13.026Z,15.80
2019-04-29T12:20:57.679Z,15.80
2019-04-29T12:23:28.256Z,15.80
2019-04-29T12:26:08.418Z,15.90
2019-04-29T12:28:45.903Z,16.00
2019-04-29T12:31:34.510Z,15.90
2019-04-29T12:34:19.742Z,16.00
2019-04-29T12:37:02.233Z,16.00
2019-04-29T12:39:45.034Z,16.00
2019-04-29T12:42:40.184Z,16.10
2019-04-29T12:45:25.228Z,16.10
2019-04-29T12:48:02.912Z,16.10
2019-04-29T12:50:34.620Z,16.00
2019-04-29T12:53:11.153Z,15.90
2019-04-29T12:55:50.307Z,15.90
2019-04-29T12:58:30.014Z,16.00
2019-04-29T13:01:20.059Z,15.90
2019-04-29T13:03:57.865Z,15.90
2019-04-29T13:06:54.110Z,15.90
2019-04-29T13:09:36.519Z,15.80
2019-04-29T13:12:19.094Z,15.70
2019-04-29T13:15:01.795Z,15.70
2019-04-29T13:17:33.803Z,15.70
2019-04-29T13:20:13.159Z,15.70
2019-04-29T13:22:47.398Z,15.90
2019-04-29T13:25:20.886Z,15.90
2019-04-29T13:27:56.130Z,15.90
2019-04-29T13:30:34.311Z,15.80
2019-04-29T13:33:05.939Z,15.80
2019-04-29T13:35:37.132Z,15.80
2019-04-29T13:38:09.222Z,16.00
2019-04-29T13:40:42.573Z,16.10
2019-04-29T13:43:15.221Z,16.20
2019-04-29T13:45:51.741Z,16.40
2019-04-29T13:48:55.946Z,16.30
2019-04-29T13:51:36.071Z,16.20
2019-04-29T13:54:15.618Z,16.00
2019-04-29T13:56:56.161Z,16.10
2019-04-29T13:59:36.929Z,16.30
2019-04-29T14:02:22.762Z,16.50
2019-04-29T14:05:02.211Z,16.70
2019-04-29T14:07:33.054Z,16.80
2019-04-29T14:10:03.465Z,16.80
2019-04-29T14:12:48.530Z,16.70
2019-04-29T14:15:13.504Z,16.70
2019-04-29T14:17:50.010Z,16.70
2019-04-29T14:20:19.846Z,16.70
2019-04-29T14:23:08.456Z,16.70
2019-04-29T14:25:39.066Z,16.70
2019-04-29T14:28:09.993Z,16.70
2019-04-29T14:30:49.065Z,16.60
2019-04-29T14:33:26.492Z,16.60
2019-04-29T14:36:07.782Z,16.50
2019-04-29T14:38:46.179Z,16.60
2019-04-29T14:41:28.232Z,16.60
2019-04-29T14:44:18.441Z,16.40
2019-04-29T14:47:08.514Z,16.30
2019-04-29T14:49:50.105Z,16.30
2019-04-29T14:52:28.207Z,16.20
2019-04-29T14:54:58.951Z,16.20
2019-04-29T14:57:29.758Z,16.30
2019-04-29T15:00:04.705Z,16.20
2019-04-29T15:02:39.188Z,16.20
2019-04-29T15:05:14.846Z,16.20
2019-04-29T15:07:45.263Z,16.30
2019-04-29T15:10:20.364Z,16.30
2019-04-29T15:13:20.164Z,16.30
2019-04-29T15:16:09.588Z,16.10
2019-04-29T15:18:54.738Z,15.90
2019-04-29T15:21:42.614Z,15.90
2019-04-29T15:24:10.058Z,15.70
2019-04-29T15:26:40.581Z,15.50
2019-04-29T15:29:11.847Z,15.40
2019-04-29T15:31:46.540Z,15.30
2019-04-29T15:34:21.224Z,15.30
2019-04-29T15:36:53.545Z,15.20
2019-04-29T15:39:34.968Z,15.10
2019-04-29T15:42:10.925Z,15.10
2019-04-29T15:44:56.982Z,15.00
2019-04-29T15:47:31.517Z,14.90
2019-04-29T15:50:18.323Z,14.80
2019-04-29T15:52:40.196Z,14.70
2019-04-29T15:55:14.935Z,14.70
2019-04-29T15:57:52.490Z,14.70
2019-04-29T16:03:12.725Z,14.60
2019-04-29T16:06:19.720Z,14.60
2019-04-29T16:08:58.927Z,14.60
2019-04-29T16:12:14.475Z,14.50
2019-04-29T16:14:43.503Z,14.50
2019-04-29T16:17:20.502Z,14.40
2019-04-29T16:19:52.893Z,14.40
2019-04-29T16:22:25.850Z,14.40
2019-04-29T16:24:59.651Z,14.30
2019-04-29T16:27:31.637Z,14.20
2019-04-29T16:30:03.839Z,14.10
2019-04-29T16:32:44.277Z,14.00
2019-04-29T16:35:18.075Z,14.00
2019-04-29T16:38:05.797Z,14.00
2019-04-29T16:40:48.138Z,14.00
2019-04-29T16:43:29.291Z,13.90
2019-04-29T16:46:09.560Z,13.90
2019-04-29T16:48:47.310Z,13.80
2019-04-29T16:51:19.843Z,13.70
2019-04-29T16:53:54.569Z,13.70
2019-04-29T16:56:27.762Z,13.60
2019-04-29T16:59:10.351Z,13.60
2019-04-29T17:01:49.712Z,13.60
2019-04-29T17:04:22.784Z,13.50
2019-04-29T17:07:11.837Z,13.50
2019-04-29T17:09:46.452Z,13.50
2019-04-29T17:12:18.911Z,13.50
2019-04-29T17:15:04.534Z,13.50
2019-04-29T17:17:35.861Z,13.50
2019-04-29T17:20:07.279Z,13.40
2019-04-29T17:22:43.315Z,13.40
2019-04-29T17:25:19.768Z,13.50
2019-04-29T17:28:25.661Z,13.50
2019-04-29T17:31:16.725Z,13.50
2019-04-29T17:34:12.263Z,13.40
2019-04-29T17:35:15.455Z,14.70
2019-04-29T17:36:53.846Z,13.40
2019-04-29T17:39:32.097Z,13.40
2019-04-29T17:42:12.107Z,13.40
2019-04-29T17:44:53.201Z,13.40
2019-04-29T17:47:48.957Z,13.40
2019-04-29T17:50:48.110Z,13.30
2019-04-29T17:53:35.471Z,13.30
2019-04-29T17:56:38.251Z,13.30
2019-04-29T17:59:40.897Z,13.30
2019-04-29T18:02:35.278Z,13.30
2019-04-29T18:05:53.001Z,13.20
2019-04-29T18:08:35.951Z,13.20
2019-04-29T18:11:10.481Z,13.10
2019-04-29T18:13:41.549Z,13.00
2019-04-29T18:16:35.199Z,13.00
2019-04-29T18:19:49.982Z,13.00
2019-04-29T18:22:54.780Z,12.90
2019-04-29T18:25:36.684Z,12.90
2019-04-29T18:28:08.338Z,12.90
2019-04-29T18:30:49.655Z,12.80
2019-04-29T18:33:35.969Z,12.80
2019-04-29T18:36:23.567Z,12.80
2019-04-29T18:39:01.815Z,12.70
2019-04-29T18:41:41.856Z,12.70
2019-04-29T18:44:19.491Z,12.70
2019-04-29T18:46:57.323Z,12.60
2019-04-29T18:49:30.335Z,12.60
2019-04-29T18:52:23.827Z,12.60
2019-04-29T18:54:47.248Z,12.60
2019-04-29T18:57:27.685Z,12.60
2019-04-29T18:59:59.092Z,12.60
2019-04-29T19:02:44.989Z,12.60
2019-04-29T19:05:26.400Z,12.50
2019-04-29T19:08:11.466Z,12.50
2019-04-29T19:10:42.544Z,12.40
2019-04-29T19:13:20.187Z,12.40
2019-04-29T19:16:09.117Z,12.30
2019-04-29T19:18:51.995Z,12.30
2019-04-29T19:21:30.439Z,12.20
2019-04-29T19:24:04.840Z,12.20
2019-04-29T19:26:36.562Z,12.20
2019-04-29T19:29:19.563Z,12.10
2019-04-29T19:31:54.949Z,12.00
2019-04-29T19:34:42.768Z,12.00
2019-04-29T19:37:22.698Z,11.90
2019-04-29T19:39:59.584Z,11.90
2019-04-29T19:42:35.541Z,11.80
2019-04-29T19:45:13.261Z,11.80
2019-04-29T19:47:40.251Z,11.80
2019-04-29T19:50:31.649Z,11.80
2019-04-29T19:53:07.181Z,11.80
2019-04-29T19:55:43.088Z,11.70
2019-04-29T19:58:18.176Z,11.60
2019-04-29T20:01:11.690Z,11.60
2019-04-29T20:03:49.455Z,11.50
2019-04-29T20:06:24.988Z,11.50
2019-04-29T20:09:14.628Z,11.40
2019-04-29T20:11:40.339Z,11.40
2019-04-29T20:14:36.949Z,11.40
2019-04-29T20:17:37.862Z,11.50
2019-04-29T20:20:18.089Z,11.50
2019-04-29T20:22:59.239Z,11.50
2019-04-29T20:25:35.767Z,11.50
2019-04-29T20:28:19.903Z,11.40
2019-04-29T20:31:16.503Z,11.50
2019-04-29T20:33:42.141Z,11.50
2019-04-29T20:36:38.397Z,11.40
2019-04-29T20:38:59.479Z,11.40
2019-04-29T20:41:40.692Z,11.40
2019-04-29T20:44:09.081Z,11.40
2019-04-29T20:46:44.983Z,11.40
2019-04-29T20:49:13.495Z,11.40
2019-04-29T20:51:52.376Z,11.40
2019-04-29T20:54:26.589Z,11.40
2019-04-29T20:57:04.764Z,11.40
2019-04-29T20:59:36.789Z,11.30
2019-04-29T21:02:12.710Z,11.30
2019-04-29T21:04:46.283Z,11.30
2019-04-29T21:07:16.974Z,11.30
2019-04-29T21:09:46.264Z,11.30
2019-04-29T21:12:38.230Z,11.30
2019-04-29T21:15:20.958Z,11.30
2019-04-29T21:17:52.420Z,11.30
2019-04-29T21:20:26.255Z,11.30
2019-04-29T21:23:01.726Z,11.30
2019-04-29T21:25:31.967Z,11.30
2019-04-29T21:28:13.508Z,11.30
2019-04-29T21:30:45.204Z,11.20
2019-04-29T21:33:21.232Z,11.30
2019-04-29T21:36:08.945Z,11.20
2019-04-29T21:39:01.975Z,11.30
2019-04-29T21:41:58.690Z,11.20
2019-04-29T21:44:30.300Z,11.20
2019-04-29T21:47:04.719Z,11.20
2019-04-29T21:49:44.966Z,11.20
2019-04-29T21:52:09.665Z,11.20
2019-04-29T21:54:40.455Z,11.10
2019-04-29T21:57:10.767Z,11.20
2019-04-29T21:59:41.554Z,11.20
2019-04-29T22:02:19.844Z,11.20
2019-04-29T22:04:56.285Z,11.20
2019-04-29T22:07:29.052Z,11.20
2019-04-29T22:09:59.311Z,11.20
2019-04-29T22:12:30.154Z,11.10
2019-04-29T22:15:00.465Z,11.10
2019-04-29T22:17:32.814Z,11.00
2019-04-29T22:20:07.613Z,11.00
2019-04-29T22:22:37.608Z,11.10
2019-04-29T22:25:10.006Z,11.10
2019-04-29T22:27:41.240Z,11.00
2019-04-29T22:30:15.244Z,11.00
2019-04-29T22:32:47.065Z,11.00
2019-04-29T22:35:17.921Z,11.00
2019-04-29T22:37:48.155Z,11.00
2019-04-29T22:40:18.508Z,11.00
2019-04-29T22:43:05.144Z,11.10
2019-04-29T22:45:33.800Z,11.10
2019-04-29T22:48:14.198Z,11.10
2019-04-29T22:50:38.090Z,11.10
2019-04-29T22:53:08.903Z,11.10
2019-04-29T22:55:39.301Z,11.00
2019-04-29T22:58:10.254Z,11.10
2019-04-29T23:00:40.905Z,11.10
2019-04-29T23:03:11.244Z,11.00
2019-04-29T23:05:41.498Z,11.00
2019-04-29T23:08:15.143Z,11.00
2019-04-29T23:10:45.627Z,10.90
2019-04-29T23:13:16.083Z,10.90
2019-04-29T23:15:46.565Z,10.90
2019-04-29T23:18:24.623Z,11.00
2019-04-29T23:21:17.020Z,11.00
2019-04-29T23:23:50.630Z,10.90
2019-04-29T23:26:25.252Z,11.00
2019-04-29T23:28:59.476Z,11.00
2019-04-29T23:31:28.333Z,10.90
2019-04-29T23:33:58.955Z,10.90
2019-04-29T23:36:31.550Z,10.90
2019-04-29T23:39:01.896Z,10.90
2019-04-29T23:41:34.222Z,10.80
2019-04-29T23:44:08.945Z,10.80
2019-04-29T23:46:39.393Z,10.90
2019-04-29T23:49:09.894Z,10.90
2019-04-29T23:51:40.123Z,10.90
2019-04-29T23:54:15.140Z,10.80
2019-04-29T23:57:06.005Z,10.80
2019-04-29T23:59:37.214Z,10.80
